Nbp Island — V2FH3 — position and weather

sailwx.info

Track history (hours):
 
Tides and Currents Weather Stations Pressure Air Temp Water Temp Dewpoint Dewpoint Depression Visibility Wind Speed Wind Dir Waves Ship Positions

Nbp Island

Last reported at 2015-Aug-04 00:23 UTC. Time now 2015-Aug-05 02:21 UTC.
Position N 39°28' W 009°50'.

Length 107 m; draft 8.2 m.

Type: Cargo ship. MMSI: 305674000.

Date/timePositionNaut miles runAvg speedWind from/ knotsBaromVisibWave heightAir tempDewpointWater temp
2015-Aug-04 00:23N 39°28' W 009°50'7 8.4
2015-Aug-03 23:33N 39°21' W 009°50'9 8.6
2015-Aug-03 22:33N 39°13' W 009°50'9 9.1
2015-Aug-03 21:33N 39°04' W 009°50'9 9.2
2015-Aug-03 20:33N 38°55' W 009°50'9 8.9
2015-Aug-03 19:33N 38°46' W 009°51'9 9.0
2015-Aug-03 18:33N 38°37' W 009°49'9 9.4
2015-Aug-03 17:33N 38°28' W 009°47'9 8.9
2015-Aug-03 16:33N 38°19' W 009°44'9 8.6
2015-Aug-03 15:33N 38°11' W 009°41'8 8.3
2015-Aug-03 14:33N 38°02' W 009°38'9 8.6
2015-Aug-03 13:33N 37°54' W 009°36'9 9.2
2015-Aug-03 12:33N 37°45' W 009°33'9 9.2
2015-Aug-03 11:33N 37°36' W 009°31'9 9.1
2015-Aug-03 10:33N 37°27' W 009°28'9 9.3
2015-Aug-03 09:33N 37°18' W 009°25'9 9.4
2015-Aug-03 08:33N 37°09' W 009°23'9 9.4
2015-Aug-03 07:33N 37°00' W 009°20'9 9.2
2015-Aug-03 06:33N 36°51' W 009°16'  
2015-Jul-31 13:23N 36°49' W 000°05'1112.0
2015-Jul-31 12:27N 36°46' E 000°09'1211.6
2015-Jul-31 11:25N 36°43' E 000°23'46 1.4
2015-Jul-30 03:06N 36°31' E 001°19'0 0.0
2015-Jul-29 19:25N 36°31' E 001°19'0 0.0
2015-Jul-29 18:25N 36°31' E 001°19'0 0.0
2015-Jul-29 16:31N 36°31' E 001°19'0 0.0
2015-Jul-29 15:31N 36°31' E 001°19'0 0.0
2015-Jul-29 14:30N 36°31' E 001°19'0 0.0
2015-Jul-29 13:30N 36°31' E 001°19'0 0.0
2015-Jul-29 12:30N 36°31' E 001°19'0 0.0
2015-Jul-29 11:30N 36°31' E 001°19'0 0.0
2015-Jul-29 06:31N 36°31' E 001°19'0 0.0
2015-Jul-29 05:31N 36°31' E 001°19'0 0.0
2015-Jul-29 04:19N 36°31' E 001°19'0 0.0
2015-Jul-29 03:31N 36°31' E 001°19'0 0.0
2015-Jul-29 02:30N 36°31' E 001°19'0 0.0
2015-Jul-29 01:30N 36°31' E 001°19'0 0.0
2015-Jul-29 00:30N 36°31' E 001°19'0 0.0
2015-Jul-28 19:21N 36°31' E 001°19'0 0.0
2015-Jul-28 18:12N 36°31' E 001°19'0 0.0
2015-Jul-28 17:24N 36°31' E 001°19'0 0.0
2015-Jul-28 16:30N 36°31' E 001°19'0 0.0
2015-Jul-28 15:31N 36°31' E 001°19'0 0.0
2015-Jul-28 14:31N 36°31' E 001°19'0 0.0
2015-Jul-28 13:31N 36°31' E 001°19'1 0.2
2015-Jul-28 09:13N 36°31' E 001°18'42 8.9
2015-Jul-28 04:31N 36°47' E 002°06'1010.0
2015-Jul-28 03:30N 36°51' E 002°18'13 9.9
2015-Jul-28 02:12N 36°56' E 002°33'6 9.8
2015-Jul-28 01:33N 36°58' E 002°40'10 9.8
2015-Jul-28 00:29N 37°01' E 002°53'9 9.9
2015-Jul-27 23:33N 37°04' E 003°04'12 9.9
2015-Jul-27 22:20N 37°06' E 003°18'810.2
2015-Jul-27 21:33N 37°06' E 003°29'1010.3
2015-Jul-27 20:33N 37°07' E 003°41'1010.1
2015-Jul-27 19:33N 37°07' E 003°54'1010.0
2015-Jul-27 18:33N 37°07' E 004°06'10 9.7
2015-Jul-27 17:33N 37°07' E 004°19'1010.0
2015-Jul-27 16:33N 37°06' E 004°31'1010.1
2015-Jul-27 15:33N 37°01' E 004°42'10 9.8
2015-Jul-27 14:34N 36°57' E 004°53'  
Track history (hours):
 
Tides and Currents Weather Stations Pressure Air Temp Water Temp Dewpoint Dewpoint Depression Visibility Wind Speed Wind Dir Waves Ship Positions

Nbp Island

Last reported at 2015-Aug-04 00:23 UTC. Time now 2015-Aug-05 02:21 UTC.
Position N 39°28' W 009°50'.

Length 107 m; draft 8.2 m.

Type: Cargo ship. MMSI: 305674000.

Date/timePositionNaut miles runAvg speedWind from/ knotsBaromVisibWave heightAir tempDewpointWater temp
2015-Aug-04 00:23N 39°28' W 009°50'7 8.4
2015-Aug-03 23:33N 39°21' W 009°50'9 8.6
2015-Aug-03 22:33N 39°13' W 009°50'9 9.1
2015-Aug-03 21:33N 39°04' W 009°50'9 9.2
2015-Aug-03 20:33N 38°55' W 009°50'9 8.9
2015-Aug-03 19:33N 38°46' W 009°51'9 9.0
2015-Aug-03 18:33N 38°37' W 009°49'9 9.4
2015-Aug-03 17:33N 38°28' W 009°47'9 8.9
2015-Aug-03 16:33N 38°19' W 009°44'9 8.6
2015-Aug-03 15:33N 38°11' W 009°41'8 8.3
2015-Aug-03 14:33N 38°02' W 009°38'9 8.6
2015-Aug-03 13:33N 37°54' W 009°36'9 9.2
2015-Aug-03 12:33N 37°45' W 009°33'9 9.2
2015-Aug-03 11:33N 37°36' W 009°31'9 9.1
2015-Aug-03 10:33N 37°27' W 009°28'9 9.3
2015-Aug-03 09:33N 37°18' W 009°25'9 9.4
2015-Aug-03 08:33N 37°09' W 009°23'9 9.4
2015-Aug-03 07:33N 37°00' W 009°20'9 9.2
2015-Aug-03 06:33N 36°51' W 009°16'  
2015-Jul-31 13:23N 36°49' W 000°05'1112.0
2015-Jul-31 12:27N 36°46' E 000°09'1211.6
2015-Jul-31 11:25N 36°43' E 000°23'46 1.4
2015-Jul-30 03:06N 36°31' E 001°19'0 0.0
2015-Jul-29 19:25N 36°31' E 001°19'0 0.0
2015-Jul-29 18:25N 36°31' E 001°19'0 0.0
2015-Jul-29 16:31N 36°31' E 001°19'0 0.0
2015-Jul-29 15:31N 36°31' E 001°19'0 0.0
2015-Jul-29 14:30N 36°31' E 001°19'0 0.0
2015-Jul-29 13:30N 36°31' E 001°19'0 0.0
2015-Jul-29 12:30N 36°31' E 001°19'0 0.0
2015-Jul-29 11:30N 36°31' E 001°19'0 0.0
2015-Jul-29 06:31N 36°31' E 001°19'0 0.0
2015-Jul-29 05:31N 36°31' E 001°19'0 0.0
2015-Jul-29 04:19N 36°31' E 001°19'0 0.0
2015-Jul-29 03:31N 36°31' E 001°19'0 0.0
2015-Jul-29 02:30N 36°31' E 001°19'0 0.0
2015-Jul-29 01:30N 36°31' E 001°19'0 0.0
2015-Jul-29 00:30N 36°31' E 001°19'0 0.0
2015-Jul-28 19:21N 36°31' E 001°19'0 0.0
2015-Jul-28 18:12N 36°31' E 001°19'0 0.0
2015-Jul-28 17:24N 36°31' E 001°19'0 0.0
2015-Jul-28 16:30N 36°31' E 001°19'0 0.0
2015-Jul-28 15:31N 36°31' E 001°19'0 0.0
2015-Jul-28 14:31N 36°31' E 001°19'0 0.0
2015-Jul-28 13:31N 36°31' E 001°19'1 0.2
2015-Jul-28 09:13N 36°31' E 001°18'42 8.9
2015-Jul-28 04:31N 36°47' E 002°06'1010.0
2015-Jul-28 03:30N 36°51' E 002°18'13 9.9
2015-Jul-28 02:12N 36°56' E 002°33'6 9.8
2015-Jul-28 01:33N 36°58' E 002°40'10 9.8
2015-Jul-28 00:29N 37°01' E 002°53'9 9.9
2015-Jul-27 23:33N 37°04' E 003°04'12 9.9
2015-Jul-27 22:20N 37°06' E 003°18'810.2
2015-Jul-27 21:33N 37°06' E 003°29'1010.3
2015-Jul-27 20:33N 37°07' E 003°41'1010.1
2015-Jul-27 19:33N 37°07' E 003°54'1010.0
2015-Jul-27 18:33N 37°07' E 004°06'10 9.7
2015-Jul-27 17:33N 37°07' E 004°19'1010.0
2015-Jul-27 16:33N 37°06' E 004°31'1010.1
2015-Jul-27 15:33N 37°01' E 004°42'10 9.8
2015-Jul-27 14:34N 36°57' E 004°53'  

Dump ship's entire track history